sensor_id;sensor_type;location;lat;lon;timestamp;pressure;altitude;pressure_sealevel;temperature;humidity
11692;BME280;33659;42.672;23.354;2023-07-29T00:01:44;69503.41;;;23.47;46.63
11692;BME280;33659;42.672;23.354;2023-07-29T00:04:11;69494.66;;;23.39;46.90
11692;BME280;33659;42.672;23.354;2023-07-29T00:06:38;69484.81;;;23.30;47.30
11692;BME280;33659;42.672;23.354;2023-07-29T00:09:05;69474.53;;;23.22;47.44
11692;BME280;33659;42.672;23.354;2023-07-29T00:11:31;69468.47;;;23.14;47.87
11692;BME280;33659;42.672;23.354;2023-07-29T00:14:00;69387.22;;;23.05;48.02
11692;BME280;33659;42.672;23.354;2023-07-29T00:16:27;69388.78;;;23.04;48.13
11692;BME280;33659;42.672;23.354;2023-07-29T00:18:54;69450.00;;;23.00;48.35
11692;BME280;33659;42.672;23.354;2023-07-29T00:21:21;69380.22;;;23.01;48.44
11692;BME280;33659;42.672;23.354;2023-07-29T00:23:47;69459.09;;;23.03;48.08
11692;BME280;33659;42.672;23.354;2023-07-29T00:26:14;69452.72;;;23.02;48.02
11692;BME280;33659;42.672;23.354;2023-07-29T00:28:41;69452.63;;;23.00;48.41
11692;BME280;33659;42.672;23.354;2023-07-29T00:31:09;69450.53;;;23.00;48.40
11692;BME280;33659;42.672;23.354;2023-07-29T00:33:36;69450.44;;;22.97;48.55
11692;BME280;33659;42.672;23.354;2023-07-29T00:36:03;69452.06;;;22.99;48.61
11692;BME280;33659;42.672;23.354;2023-07-29T00:38:30;69448.88;;;22.98;48.70
11692;BME280;33659;42.672;23.354;2023-07-29T00:40:57;69379.13;;;23.00;48.64
11692;BME280;33659;42.672;23.354;2023-07-29T00:43:24;69448.81;;;22.96;48.67
11692;BME280;33659;42.672;23.354;2023-07-29T00:45:51;69451.53;;;22.98;48.66
11692;BME280;33659;42.672;23.354;2023-07-29T00:48:19;69383.94;;;23.02;48.75
11692;BME280;33659;42.672;23.354;2023-07-29T00:50:46;69460.81;;;23.07;48.52
11692;BME280;33659;42.672;23.354;2023-07-29T00:53:13;69459.72;;;23.06;48.91
11692;BME280;33659;42.672;23.354;2023-07-29T00:55:40;69389.41;;;23.07;48.91
11692;BME280;33659;42.672;23.354;2023-07-29T00:58:07;69459.81;;;23.09;49.10
11692;BME280;33659;42.672;23.354;2023-07-29T01:00:34;69464.09;;;23.10;48.69
11692;BME280;33659;42.672;23.354;2023-07-29T01:03:01;69472.72;;;23.16;48.43
11692;BME280;33659;42.672;23.354;2023-07-29T01:05:33;69472.25;;;23.18;48.62
11692;BME280;33659;42.672;23.354;2023-07-29T01:08:06;69473.38;;;23.19;48.44
11692;BME280;33659;42.672;23.354;2023-07-29T01:10:41;69399.75;;;23.17;48.72
11692;BME280;33659;42.672;23.354;2023-07-29T01:13:18;69470.09;;;23.16;48.83
11692;BME280;33659;42.672;23.354;2023-07-29T01:15:49;69476.56;;;23.19;48.96
11692;BME280;33659;42.672;23.354;2023-07-29T01:18:22;69406.84;;;23.23;48.55
11692;BME280;33659;42.672;23.354;2023-07-29T01:20:53;69479.38;;;23.24;48.37
11692;BME280;33659;42.672;23.354;2023-07-29T01:23:24;69480.47;;;23.26;48.61
11692;BME280;33659;42.672;23.354;2023-07-29T01:25:51;69412.84;;;23.29;48.63
11692;BME280;33659;42.672;23.354;2023-07-29T01:28:18;69489.69;;;23.32;48.41
11692;BME280;33659;42.672;23.354;2023-07-29T01:30:45;69486.56;;;23.34;47.74
11692;BME280;33659;42.672;23.354;2023-07-29T01:33:16;69400.94;;;23.20;47.13
11692;BME280;33659;42.672;23.354;2023-07-29T01:35:47;69460.34;;;23.09;47.55
11692;BME280;33659;42.672;23.354;2023-07-29T01:38:17;69384.03;;;23.05;48.20
11692;BME280;33659;42.672;23.354;2023-07-29T01:40:48;69389.41;;;23.07;49.13
11692;BME280;33659;42.672;23.354;2023-07-29T01:43:15;69460.72;;;23.05;48.96
11692;BME280;33659;42.672;23.354;2023-07-29T01:45:44;69386.66;;;23.05;48.83
11692;BME280;33659;42.672;23.354;2023-07-29T01:48:10;69449.41;;;22.99;49.43
11692;BME280;33659;42.672;23.354;2023-07-29T01:50:37;69447.16;;;22.94;49.62
11692;BME280;33659;42.672;23.354;2023-07-29T01:53:04;69373.03;;;22.92;49.18
11692;BME280;33659;42.672;23.354;2023-07-29T01:55:31;69443.34;;;22.91;49.50
11692;BME280;33659;42.672;23.354;2023-07-29T01:57:59;69368.69;;;22.88;49.93
11692;BME280;33659;42.672;23.354;2023-07-29T02:00:25;69433.56;;;22.84;49.69
11692;BME280;33659;42.672;23.354;2023-07-29T02:02:52;69430.22;;;22.79;50.06
11692;BME280;33659;42.672;23.354;2023-07-29T02:05:19;69428.50;;;22.75;50.07
11692;BME280;33659;42.672;23.354;2023-07-29T02:07:46;69428.03;;;22.77;50.14
11692;BME280;33659;42.672;23.354;2023-07-29T02:10:12;69424.31;;;22.76;49.79
11692;BME280;33659;42.672;23.354;2023-07-29T02:12:39;69425.94;;;22.77;49.81
11692;BME280;33659;42.672;23.354;2023-07-29T02:15:08;69359.94;;;22.80;50.18
11692;BME280;33659;42.672;23.354;2023-07-29T02:17:36;69434.03;;;22.82;50.05
11692;BME280;33659;42.672;23.354;2023-07-29T02:20:03;69433.50;;;22.82;49.77
11692;BME280;33659;42.672;23.354;2023-07-29T02:22:31;69423.66;;;22.73;49.85
11692;BME280;33659;42.672;23.354;2023-07-29T02:24:57;69348.56;;;22.71;50.12
11692;BME280;33659;42.672;23.354;2023-07-29T02:27:24;69425.31;;;22.74;50.00
11692;BME280;33659;42.672;23.354;2023-07-29T02:29:52;69353.41;;;22.74;50.31
11692;BME280;33659;42.672;23.354;2023-07-29T02:32:21;69349.03;;;22.69;50.73
11692;BME280;33659;42.672;23.354;2023-07-29T02:34:48;69410.47;;;22.58;50.22
11692;BME280;33659;42.672;23.354;2023-07-29T02:37:15;69385.53;;;22.39;50.80
11692;BME280;33659;42.672;23.354;2023-07-29T02:39:42;69374.53;;;22.27;51.66
11692;BME280;33659;42.672;23.354;2023-07-29T02:42:08;69353.91;;;22.10;51.79
11692;BME280;33659;42.672;23.354;2023-07-29T02:44:35;69333.69;;;21.91;51.92
11692;BME280;33659;42.672;23.354;2023-07-29T02:47:02;69315.63;;;21.72;52.14
11692;BME280;33659;42.672;23.354;2023-07-29T02:49:30;69298.69;;;21.56;50.54
11692;BME280;33659;42.672;23.354;2023-07-29T02:51:57;69209.03;;;21.41;51.22
11692;BME280;33659;42.672;23.354;2023-07-29T02:54:23;69264.97;;;21.27;51.38
11692;BME280;33659;42.672;23.354;2023-07-29T02:56:50;69261.13;;;21.23;52.16
11692;BME280;33659;42.672;23.354;2023-07-29T02:59:17;69204.13;;;21.36;52.56
11692;BME280;33659;42.672;23.354;2023-07-29T03:01:44;69292.25;;;21.52;53.01
11692;BME280;33659;42.672;23.354;2023-07-29T03:04:10;69307.97;;;21.65;52.73
11692;BME280;33659;42.672;23.354;2023-07-29T03:06:39;69321.63;;;21.77;51.91
11692;BME280;33659;42.672;23.354;2023-07-29T03:09:06;69252.00;;;21.79;52.29
11692;BME280;33659;42.672;23.354;2023-07-29T03:11:33;69329.78;;;21.85;51.93
11692;BME280;33659;42.672;23.354;2023-07-29T03:14:00;69330.34;;;21.85;51.84
11692;BME280;33659;42.672;23.354;2023-07-29T03:16:27;69252.00;;;21.79;52.31
11692;BME280;33659;42.672;23.354;2023-07-29T03:18:54;69314.53;;;21.71;52.60
11692;BME280;33659;42.672;23.354;2023-07-29T03:21:20;69311.16;;;21.65;52.77
11692;BME280;33659;42.672;23.354;2023-07-29T03:23:48;69297.69;;;21.57;53.36
11692;BME280;33659;42.672;23.354;2023-07-29T03:26:15;69297.13;;;21.57;53.17
11692;BME280;33659;42.672;23.354;2023-07-29T03:28:43;69301.44;;;21.58;53.33
11692;BME280;33659;42.672;23.354;2023-07-29T03:31:10;69304.78;;;21.64;53.33
11692;BME280;33659;42.672;23.354;2023-07-29T03:33:37;69305.25;;;21.62;53.26
11692;BME280;33659;42.672;23.354;2023-07-29T03:36:04;69303.16;;;21.62;53.34
11692;BME280;33659;42.672;23.354;2023-07-29T03:38:30;69316.25;;;21.75;53.10
11692;BME280;33659;42.672;23.354;2023-07-29T03:40:59;69319.53;;;21.78;53.03
11692;BME280;33659;42.672;23.354;2023-07-29T03:43:27;69327.06;;;21.82;52.98
11692;BME280;33659;42.672;23.354;2023-07-29T03:45:55;69332.50;;;21.87;52.65
11692;BME280;33659;42.672;23.354;2023-07-29T03:48:22;69267.31;;;21.96;52.33
11692;BME280;33659;42.672;23.354;2023-07-29T03:50:48;69280.88;;;22.06;52.58
11692;BME280;33659;42.672;23.354;2023-07-29T03:53:15;69364.72;;;22.17;52.21
11692;BME280;33659;42.672;23.354;2023-07-29T03:55:42;69311.97;;;22.35;51.53
11692;BME280;33659;42.672;23.354;2023-07-29T03:58:10;69398.03;;;22.49;51.13
11692;BME280;33659;42.672;23.354;2023-07-29T04:00:37;69402.91;;;22.53;50.77
11692;BME280;33659;42.672;23.354;2023-07-29T04:03:04;69338.13;;;22.59;50.83
11692;BME280;33659;42.672;23.354;2023-07-29T04:05:31;69411.19;;;22.63;50.62
11692;BME280;33659;42.672;23.354;2023-07-29T04:07:57;69418.22;;;22.67;50.36
11692;BME280;33659;42.672;23.354;2023-07-29T04:10:24;69404.66;;;22.57;50.79
11692;BME280;33659;42.672;23.354;2023-07-29T04:12:51;69408.38;;;22.58;50.72
11692;BME280;33659;42.672;23.354;2023-07-29T04:15:19;69412.75;;;22.62;50.96
11692;BME280;33659;42.672;23.354;2023-07-29T04:17:46;69348.56;;;22.71;50.25
11692;BME280;33659;42.672;23.354;2023-07-29T04:20:13;69352.28;;;22.73;49.57
11692;BME280;33659;42.672;23.354;2023-07-29T04:22:39;69341.41;;;22.62;50.44
11692;BME280;33659;42.672;23.354;2023-07-29T04:25:07;69407.22;;;22.55;50.20
11692;BME280;33659;42.672;23.354;2023-07-29T04:27:33;69329.41;;;22.51;49.99
11692;BME280;33659;42.672;23.354;2023-07-29T04:30:00;69391.56;;;22.45;50.65
11692;BME280;33659;42.672;23.354;2023-07-29T04:32:28;69400.28;;;22.53;50.42
11692;BME280;33659;42.672;23.354;2023-07-29T04:34:55;69408.38;;;22.58;49.39
11692;BME280;33659;42.672;23.354;2023-07-29T04:37:21;69416.56;;;22.66;49.89
11692;BME280;33659;42.672;23.354;2023-07-29T04:39:48;69423.66;;;22.73;48.98
11692;BME280;33659;42.672;23.354;2023-07-29T04:42:15;69416.13;;;22.68;48.09
11692;BME280;33659;42.672;23.354;2023-07-29T04:44:42;69397.47;;;22.48;49.41
11692;BME280;33659;42.672;23.354;2023-07-29T04:47:10;69386.56;;;22.38;49.42
11692;BME280;33659;42.672;23.354;2023-07-29T04:49:38;69383.19;;;22.32;49.64
11692;BME280;33659;42.672;23.354;2023-07-29T04:52:05;69371.91;;;22.27;49.85
11692;BME280;33659;42.672;23.354;2023-07-29T04:54:32;69386.63;;;22.40;50.23
11692;BME280;33659;42.672;23.354;2023-07-29T04:56:59;69388.84;;;22.42;49.35
11692;BME280;33659;42.672;23.354;2023-07-29T04:59:25;69391.56;;;22.45;49.67
11692;BME280;33659;42.672;23.354;2023-07-29T05:01:52;69322.94;;;22.48;49.28
11692;BME280;33659;42.672;23.354;2023-07-29T05:04:19;69413.84;;;22.63;49.42
11692;BME280;33659;42.672;23.354;2023-07-29T05:06:47;69428.13;;;22.79;48.98
11692;BME280;33659;42.672;23.354;2023-07-29T05:09:14;69443.88;;;22.91;48.99
11692;BME280;33659;42.672;23.354;2023-07-29T05:11:41;69453.78;;;23.03;48.19
11692;BME280;33659;42.672;23.354;2023-07-29T05:14:09;69438.97;;;22.87;48.55
11692;BME280;33659;42.672;23.354;2023-07-29T05:16:36;69361.66;;;22.84;48.41
11692;BME280;33659;42.672;23.354;2023-07-29T05:19:02;69442.78;;;22.90;48.26
11692;BME280;33659;42.672;23.354;2023-07-29T05:21:29;69435.78;;;22.86;48.29
11692;BME280;33659;42.672;23.354;2023-07-29T05:23:58;69439.06;;;22.89;48.62
11692;BME280;33659;42.672;23.354;2023-07-29T05:26:24;69437.44;;;22.88;48.40
11692;BME280;33659;42.672;23.354;2023-07-29T05:28:51;69454.88;;;23.04;48.80
11692;BME280;33659;42.672;23.354;2023-07-29T05:31:18;69466.91;;;23.15;48.02
11692;BME280;33659;42.672;23.354;2023-07-29T05:33:45;69475.09;;;23.23;47.96
11692;BME280;33659;42.672;23.354;2023-07-29T05:36:11;69488.13;;;23.33;47.66
11692;BME280;33659;42.672;23.354;2023-07-29T05:38:38;69500.69;;;23.44;47.27
11692;BME280;33659;42.672;23.354;2023-07-29T05:41:07;69496.84;;;23.41;47.34
11692;BME280;33659;42.672;23.354;2023-07-29T05:43:33;69428.22;;;23.46;47.64
11692;BME280;33659;42.672;23.354;2023-07-29T05:46:00;69496.84;;;23.41;47.07
11692;BME280;33659;42.672;23.354;2023-07-29T05:48:27;69495.22;;;23.39;47.28
11692;BME280;33659;42.672;23.354;2023-07-29T05:50:54;69488.75;;;23.36;47.80
11692;BME280;33659;42.672;23.354;2023-07-29T05:53:20;69497.94;;;23.42;47.08
11692;BME280;33659;42.672;23.354;2023-07-29T05:55:47;69473.38;;;23.19;47.53
11692;BME280;33659;42.672;23.354;2023-07-29T05:58:15;69469.53;;;23.15;47.45
11692;BME280;33659;42.672;23.354;2023-07-29T06:00:42;69464.09;;;23.10;47.62
11692;BME280;33659;42.672;23.354;2023-07-29T06:03:09;69475.56;;;23.21;47.90
11692;BME280;33659;42.672;23.354;2023-07-29T06:05:35;69486.47;;;23.31;47.89
11692;BME280;33659;42.672;23.354;2023-07-29T06:08:02;69502.75;;;23.44;47.72
11692;BME280;33659;42.672;23.354;2023-07-29T06:10:29;69498.56;;;23.45;47.70
11692;BME280;33659;42.672;23.354;2023-07-29T06:12:56;69498.41;;;23.40;47.35
11692;BME280;33659;42.672;23.354;2023-07-29T06:15:24;69476.09;;;23.21;47.96
11692;BME280;33659;42.672;23.354;2023-07-29T06:17:51;69383.94;;;23.02;47.93
11692;BME280;33659;42.672;23.354;2023-07-29T06:20:18;69379.59;;;22.98;48.24
11692;BME280;33659;42.672;23.354;2023-07-29T06:22:44;69452.06;;;22.99;48.36
11692;BME280;33659;42.672;23.354;2023-07-29T06:25:11;69448.88;;;22.98;48.82
11692;BME280;33659;42.672;23.354;2023-07-29T06:27:38;69458.72;;;23.08;49.58
11692;BME280;33659;42.672;23.354;2023-07-29T06:30:06;69478.28;;;23.23;49.35
11692;BME280;33659;42.672;23.354;2023-07-29T06:32:34;69415.59;;;23.32;49.25
11692;BME280;33659;42.672;23.354;2023-07-29T06:35:01;69505.13;;;23.51;48.55
11692;BME280;33659;42.672;23.354;2023-07-29T06:37:28;69460.88;;;23.74;47.82
11692;BME280;33659;42.672;23.354;2023-07-29T06:39:54;69473.44;;;23.86;46.80
11692;BME280;33659;42.672;23.354;2023-07-29T06:42:21;69493.00;;;24.01;46.81
11692;BME280;33659;42.672;23.354;2023-07-29T06:44:48;69581.44;;;24.17;46.57
11692;BME280;33659;42.672;23.354;2023-07-29T06:47:15;69581.53;;;24.20;46.40
11692;BME280;33659;42.672;23.354;2023-07-29T06:49:43;69582.06;;;24.20;46.73
11692;BME280;33659;42.672;23.354;2023-07-29T06:52:09;69586.38;;;24.22;46.49
11692;BME280;33659;42.672;23.354;2023-07-29T06:54:36;69573.88;;;24.13;46.49
11692;BME280;33659;42.672;23.354;2023-07-29T06:57:03;69552.03;;;23.92;47.01
11692;BME280;33659;42.672;23.354;2023-07-29T06:59:30;69531.28;;;23.73;46.92
11692;BME280;33659;42.672;23.354;2023-07-29T07:01:57;69536.66;;;23.75;47.61
11692;BME280;33659;42.672;23.354;2023-07-29T07:04:25;69541.66;;;23.83;47.88
11692;BME280;33659;42.672;23.354;2023-07-29T07:06:53;69553.03;;;23.91;47.72
11692;BME280;33659;42.672;23.354;2023-07-29T07:09:20;69562.41;;;24.02;47.50
11692;BME280;33659;42.672;23.354;2023-07-29T07:11:46;69500.34;;;24.16;47.18
11692;BME280;33659;42.672;23.354;2023-07-29T07:14:13;69511.63;;;24.21;47.62
11692;BME280;33659;42.672;23.354;2023-07-29T07:16:40;69591.44;;;24.31;47.19
11692;BME280;33659;42.672;23.354;2023-07-29T07:19:07;69607.72;;;24.42;46.84
11692;BME280;33659;42.672;23.354;2023-07-29T07:21:33;69620.25;;;24.53;46.81
11692;BME280;33659;42.672;23.354;2023-07-29T07:24:01;69633.53;;;24.71;46.22
11692;BME280;33659;42.672;23.354;2023-07-29T07:26:28;69565.47;;;24.81;46.28
11692;BME280;33659;42.672;23.354;2023-07-29T07:28:55;69591.34;;;24.96;45.50
11692;BME280;33659;42.672;23.354;2023-07-29T07:31:22;69597.91;;;25.02;45.64
11692;BME280;33659;42.672;23.354;2023-07-29T07:33:49;69605.03;;;25.08;45.58
11692;BME280;33659;42.672;23.354;2023-07-29T07:36:15;69609.94;;;25.13;45.67
11692;BME280;33659;42.672;23.354;2023-07-29T07:38:42;69679.94;;;25.11;45.72
11692;BME280;33659;42.672;23.354;2023-07-29T07:41:10;69679.88;;;25.09;45.60
11692;BME280;33659;42.672;23.354;2023-07-29T07:43:37;69608.84;;;25.12;45.23
11692;BME280;33659;42.672;23.354;2023-07-29T07:46:04;69687.03;;;25.18;45.24
11692;BME280;33659;42.672;23.354;2023-07-29T07:48:31;69619.75;;;25.22;45.08
11692;BME280;33659;42.672;23.354;2023-07-29T07:50:58;69624.69;;;25.27;45.24
11692;BME280;33659;42.672;23.354;2023-07-29T07:53:25;69624.16;;;25.26;45.17
11692;BME280;33659;42.672;23.354;2023-07-29T07:55:52;69705.19;;;25.37;44.91
11692;BME280;33659;42.672;23.354;2023-07-29T07:58:20;69712.66;;;25.39;45.04
11692;BME280;33659;42.672;23.354;2023-07-29T08:00:47;69647.06;;;25.48;44.84
11692;BME280;33659;42.672;23.354;2023-07-29T08:03:13;69725.97;;;25.57;44.21
11692;BME280;33659;42.672;23.354;2023-07-29T08:05:40;69665.66;;;25.65;43.88
11692;BME280;33659;42.672;23.354;2023-07-29T08:08:07;69662.38;;;25.62;44.04
11692;BME280;33659;42.672;23.354;2023-07-29T08:10:34;69655.81;;;25.56;44.08
11692;BME280;33659;42.672;23.354;2023-07-29T08:13:01;69651.03;;;25.56;44.19
11692;BME280;33659;42.672;23.354;2023-07-29T08:15:29;69662.91;;;25.62;43.82
11692;BME280;33659;42.672;23.354;2023-07-29T08:17:56;69658.56;;;25.58;43.61
11692;BME280;33659;42.672;23.354;2023-07-29T08:20:22;69742.19;;;25.67;43.67
11692;BME280;33659;42.672;23.354;2023-07-29T08:22:49;69737.81;;;25.63;43.59
11692;BME280;33659;42.672;23.354;2023-07-29T08:25:16;69673.31;;;25.72;43.17
11692;BME280;33659;42.672;23.354;2023-07-29T08:27:43;69673.31;;;25.72;43.04
11692;BME280;33659;42.672;23.354;2023-07-29T08:30:10;69746.56;;;25.71;43.31
11692;BME280;33659;42.672;23.354;2023-07-29T08:32:38;69743.28;;;25.68;42.88
11692;BME280;33659;42.672;23.354;2023-07-29T08:35:05;69663.16;;;25.70;42.75
11692;BME280;33659;42.672;23.354;2023-07-29T08:37:32;69679.88;;;25.78;42.48
11692;BME280;33659;42.672;23.354;2023-07-29T08:39:59;69753.78;;;25.80;41.97
11692;BME280;33659;42.672;23.354;2023-07-29T08:42:29;69755.50;;;25.84;42.07
11692;BME280;33659;42.672;23.354;2023-07-29T08:44:59;69694.06;;;25.91;41.86
11692;BME280;33659;42.672;23.354;2023-07-29T08:47:28;69773.47;;;25.99;41.46
11692;BME280;33659;42.672;23.354;2023-07-29T08:49:56;69777.75;;;26.00;41.09
11692;BME280;33659;42.672;23.354;2023-07-29T08:52:25;69780.56;;;26.05;40.72
11692;BME280;33659;42.672;23.354;2023-07-29T08:54:52;69710.47;;;26.07;40.60
11692;BME280;33659;42.672;23.354;2023-07-29T08:57:20;69782.75;;;26.07;40.28
11692;BME280;33659;42.672;23.354;2023-07-29T08:59:48;69783.78;;;26.06;39.88
11692;BME280;33659;42.672;23.354;2023-07-29T09:02:15;69718.59;;;26.12;39.62
11692;BME280;33659;42.672;23.354;2023-07-29T09:04:42;69728.97;;;26.22;39.13
11692;BME280;33659;42.672;23.354;2023-07-29T09:07:10;69806.19;;;26.27;38.24
11692;BME280;33659;42.672;23.354;2023-07-29T09:09:37;69808.94;;;26.29;38.32
11692;BME280;33659;42.672;23.354;2023-07-29T09:12:05;69736.16;;;26.31;37.97
11692;BME280;33659;42.672;23.354;2023-07-29T09:14:32;69810.19;;;26.35;38.42
11692;BME280;33659;42.672;23.354;2023-07-29T09:16:59;69819.88;;;26.39;38.04
11692;BME280;33659;42.672;23.354;2023-07-29T09:19:26;69828.13;;;26.47;38.02
11692;BME280;33659;42.672;23.354;2023-07-29T09:21:53;69746.16;;;26.45;38.15
11692;BME280;33659;42.672;23.354;2023-07-29T09:24:21;69759.59;;;26.50;37.21
11692;BME280;33659;42.672;23.354;2023-07-29T09:26:49;69828.19;;;26.50;36.71
11692;BME280;33659;42.672;23.354;2023-07-29T09:29:16;69831.47;;;26.53;37.07
11692;BME280;33659;42.672;23.354;2023-07-29T09:31:48;69833.03;;;26.52;37.20
11692;BME280;33659;42.672;23.354;2023-07-29T09:34:15;69766.22;;;26.59;36.87
11692;BME280;33659;42.672;23.354;2023-07-29T09:36:42;69769.66;;;26.67;36.62
11692;BME280;33659;42.672;23.354;2023-07-29T09:39:11;69772.06;;;26.77;36.57
11692;BME280;33659;42.672;23.354;2023-07-29T09:41:40;69864.84;;;26.84;35.82
11692;BME280;33659;42.672;23.354;2023-07-29T09:44:07;69801.69;;;26.89;35.83
11692;BME280;33659;42.672;23.354;2023-07-29T09:46:35;69875.25;;;26.93;35.60
11692;BME280;33659;42.672;23.354;2023-07-29T09:49:03;69877.44;;;26.95;35.09
11692;BME280;33659;42.672;23.354;2023-07-29T09:51:31;69801.19;;;26.91;34.94
11692;BME280;33659;42.672;23.354;2023-07-29T09:54:02;69886.13;;;27.01;34.60
11692;BME280;33659;42.672;23.354;2023-07-29T09:56:29;69884.00;;;27.02;35.45
11692;BME280;33659;42.672;23.354;2023-07-29T09:58:57;69821.38;;;27.08;35.00
11692;BME280;33659;42.672;23.354;2023-07-29T10:01:24;69821.94;;;27.08;35.26
11692;BME280;33659;42.672;23.354;2023-07-29T10:03:51;69806.22;;;26.98;34.48
11692;BME280;33659;42.672;23.354;2023-07-29T10:06:22;69831.31;;;27.19;34.28
11692;BME280;33659;42.672;23.354;2023-07-29T10:08:49;69834.03;;;27.22;34.77
11692;BME280;33659;42.672;23.354;2023-07-29T10:11:17;69918.44;;;27.31;34.46
11692;BME280;33659;42.672;23.354;2023-07-29T10:13:46;69845.13;;;27.37;34.00
11692;BME280;33659;42.672;23.354;2023-07-29T10:16:14;69853.56;;;27.35;34.24
11692;BME280;33659;42.672;23.354;2023-07-29T10:18:42;69928.28;;;27.40;34.11
11692;BME280;33659;42.672;23.354;2023-07-29T10:21:10;69851.53;;;27.38;33.88
11692;BME280;33659;42.672;23.354;2023-07-29T10:23:43;69835.19;;;27.25;33.46
11692;BME280;33659;42.672;23.354;2023-07-29T10:26:13;69845.44;;;27.30;33.29
11692;BME280;33659;42.672;23.354;2023-07-29T10:28:46;69854.19;;;27.38;33.58
11692;BME280;33659;42.672;23.354;2023-07-29T10:31:15;69860.75;;;27.44;33.30
11692;BME280;33659;42.672;23.354;2023-07-29T10:33:43;69858.38;;;27.54;33.32
11692;BME280;33659;42.672;23.354;2023-07-29T10:36:10;69872.22;;;27.55;33.45
11692;BME280;33659;42.672;23.354;2023-07-29T10:38:37;69868.00;;;27.56;33.59
11692;BME280;33659;42.672;23.354;2023-07-29T10:41:04;69878.41;;;27.66;33.50
11692;BME280;33659;42.672;23.354;2023-07-29T10:43:32;69879.56;;;27.69;33.16
11692;BME280;33659;42.672;23.354;2023-07-29T10:46:16;69879.84;;;27.79;32.94
11692;BME280;33659;42.672;23.354;2023-07-29T10:48:44;69905.69;;;27.89;32.41
11692;BME280;33659;42.672;23.354;2023-07-29T10:51:28;69892.97;;;27.92;31.83
11692;BME280;33659;42.672;23.354;2023-07-29T10:53:57;69911.16;;;27.94;32.36
11692;BME280;33659;42.672;23.354;2023-07-29T10:56:28;69909.66;;;27.97;32.46
11692;BME280;33659;42.672;23.354;2023-07-29T10:58:56;69908.09;;;27.98;32.95
11692;BME280;33659;42.672;23.354;2023-07-29T11:01:28;69929.16;;;28.08;32.15
11692;BME280;33659;42.672;23.354;2023-07-29T11:04:22;69944.38;;;28.20;32.01
11692;BME280;33659;42.672;23.354;2023-07-29T11:07:23;70024.69;;;28.30;31.81
11692;BME280;33659;42.672;23.354;2023-07-29T11:09:58;69963.06;;;28.40;32.04
11692;BME280;33659;42.672;23.354;2023-07-29T11:12:38;69976.75;;;28.52;31.46
11692;BME280;33659;42.672;23.354;2023-07-29T11:15:16;69995.84;;;28.68;31.21
11692;BME280;33659;42.672;23.354;2023-07-29T11:17:46;70008.50;;;28.82;30.95
11692;BME280;33659;42.672;23.354;2023-07-29T11:20:14;70025.47;;;28.98;30.69
11692;BME280;33659;42.672;23.354;2023-07-29T11:22:41;70035.50;;;29.12;31.03
11692;BME280;33659;42.672;23.354;2023-07-29T11:25:10;70026.03;;;29.18;30.68
11692;BME280;33659;42.672;23.354;2023-07-29T11:27:37;70056.75;;;29.29;30.62
11692;BME280;33659;42.672;23.354;2023-07-29T11:30:08;70048.88;;;29.34;30.73
11692;BME280;33659;42.672;23.354;2023-07-29T11:32:37;70071.97;;;29.38;30.02
11692;BME280;33659;42.672;23.354;2023-07-29T11:35:07;70043.34;;;29.27;29.90
11692;BME280;33659;42.672;23.354;2023-07-29T11:37:35;70050.41;;;29.31;29.75
11692;BME280;33659;42.672;23.354;2023-07-29T11:40:03;70055.84;;;29.36;29.26
11692;BME280;33659;42.672;23.354;2023-07-29T11:42:32;70051.06;;;29.36;29.28
11692;BME280;33659;42.672;23.354;2023-07-29T11:44:59;70072.03;;;29.41;29.53
11692;BME280;33659;42.672;23.354;2023-07-29T11:47:26;70083.78;;;29.62;29.14
11692;BME280;33659;42.672;23.354;2023-07-29T11:49:53;70103.25;;;29.70;29.04
11692;BME280;33659;42.672;23.354;2023-07-29T11:52:22;70099.19;;;29.79;29.12
11692;BME280;33659;42.672;23.354;2023-07-29T11:54:49;70112.88;;;29.91;29.08
11692;BME280;33659;42.672;23.354;2023-07-29T11:57:16;70141.59;;;30.06;28.47
11692;BME280;33659;42.672;23.354;2023-07-29T11:59:45;70151.47;;;30.15;28.54
11692;BME280;33659;42.672;23.354;2023-07-29T12:02:14;70137.56;;;30.14;28.72
11692;BME280;33659;42.672;23.354;2023-07-29T12:04:43;70151.03;;;30.19;28.56
11692;BME280;33659;42.672;23.354;2023-07-29T12:07:12;70149.59;;;30.26;28.60
11692;BME280;33659;42.672;23.354;2023-07-29T12:09:41;70175.50;;;30.35;27.96
11692;BME280;33659;42.672;23.354;2023-07-29T12:12:08;70181.72;;;30.48;28.18
11692;BME280;33659;42.672;23.354;2023-07-29T12:14:35;70187.50;;;30.66;28.09
11692;BME280;33659;42.672;23.354;2023-07-29T12:17:04;70196.56;;;30.64;28.16
11692;BME280;33659;42.672;23.354;2023-07-29T12:19:32;70216.19;;;30.78;27.74
11692;BME280;33659;42.672;23.354;2023-07-29T12:22:00;70229.19;;;30.85;27.70
11692;BME280;33659;42.672;23.354;2023-07-29T12:24:27;70225.06;;;30.91;27.28
11692;BME280;33659;42.672;23.354;2023-07-29T12:26:56;70227.56;;;30.83;27.79
11692;BME280;33659;42.672;23.354;2023-07-29T12:29:23;70227.69;;;30.88;27.29
11692;BME280;33659;42.672;23.354;2023-07-29T12:31:57;70224.78;;;31.00;27.42
11692;BME280;33659;42.672;23.354;2023-07-29T12:34:25;70264.28;;;31.17;26.53
11692;BME280;33659;42.672;23.354;2023-07-29T12:36:53;70229.22;;;31.07;26.75
11692;BME280;33659;42.672;23.354;2023-07-29T12:39:23;70243.94;;;31.18;26.84
11692;BME280;33659;42.672;23.354;2023-07-29T12:41:51;70266.00;;;31.21;26.29
11692;BME280;33659;42.672;23.354;2023-07-29T12:44:20;70281.34;;;31.36;25.95
11692;BME280;33659;42.672;23.354;2023-07-29T12:46:46;70280.00;;;31.47;26.48
11692;BME280;33659;42.672;23.354;2023-07-29T12:49:13;70310.47;;;31.65;26.36
11692;BME280;33659;42.672;23.354;2023-07-29T12:51:40;70320.28;;;31.72;26.36
11692;BME280;33659;42.672;23.354;2023-07-29T12:54:07;70305.59;;;31.63;25.92